sensor_id;sensor_type;location;lat;lon;timestamp;temperature;humidity
16243;DHT22;11719;51.052;6.982;2023-03-14T00:00:14;14.60;99.90
16243;DHT22;11719;51.052;6.982;2023-03-14T00:02:41;14.70;99.90
16243;DHT22;11719;51.052;6.982;2023-03-14T00:05:07;14.80;99.90
16243;DHT22;11719;51.052;6.982;2023-03-14T00:07:36;14.90;99.90
16243;DHT22;11719;51.052;6.982;2023-03-14T00:10:05;14.90;99.90
16243;DHT22;11719;51.052;6.982;2023-03-14T00:12:32;14.90;99.90
16243;DHT22;11719;51.052;6.982;2023-03-14T00:14:58;14.90;99.90
16243;DHT22;11719;51.052;6.982;2023-03-14T00:17:26;14.90;99.90
16243;DHT22;11719;51.052;6.982;2023-03-14T00:19:53;14.80;99.90
16243;DHT22;11719;51.052;6.982;2023-03-14T00:22:20;14.80;99.90
16243;DHT22;11719;51.052;6.982;2023-03-14T00:24:46;14.80;99.90
16243;DHT22;11719;51.052;6.982;2023-03-14T00:27:12;14.80;99.90
16243;DHT22;11719;51.052;6.982;2023-03-14T00:29:38;14.80;99.90
16243;DHT22;11719;51.052;6.982;2023-03-14T00:32:04;14.80;99.90
16243;DHT22;11719;51.052;6.982;2023-03-14T00:34:31;14.80;99.90
16243;DHT22;11719;51.052;6.982;2023-03-14T00:36:58;14.80;99.90
16243;DHT22;11719;51.052;6.982;2023-03-14T00:39:23;14.70;99.90
16243;DHT22;11719;51.052;6.982;2023-03-14T00:41:49;14.70;99.90
16243;DHT22;11719;51.052;6.982;2023-03-14T00:44:15;14.60;99.90
16243;DHT22;11719;51.052;6.982;2023-03-14T00:46:41;14.70;99.90
16243;DHT22;11719;51.052;6.982;2023-03-14T00:49:07;14.80;99.90
16243;DHT22;11719;51.052;6.982;2023-03-14T00:51:33;14.70;99.90
16243;DHT22;11719;51.052;6.982;2023-03-14T00:54:00;14.70;99.90
16243;DHT22;11719;51.052;6.982;2023-03-14T00:56:25;14.60;99.90
16243;DHT22;11719;51.052;6.982;2023-03-14T00:58:57;14.70;99.90
16243;DHT22;11719;51.052;6.982;2023-03-14T01:01:23;14.60;99.90
16243;DHT22;11719;51.052;6.982;2023-03-14T01:03:54;14.50;99.90
16243;DHT22;11719;51.052;6.982;2023-03-14T01:06:23;14.20;99.90
16243;DHT22;11719;51.052;6.982;2023-03-14T01:08:51;13.90;99.90
16243;DHT22;11719;51.052;6.982;2023-03-14T01:11:23;13.60;99.90
16243;DHT22;11719;51.052;6.982;2023-03-14T01:13:51;13.60;99.90
16243;DHT22;11719;51.052;6.982;2023-03-14T01:16:19;13.70;99.90
16243;DHT22;11719;51.052;6.982;2023-03-14T01:18:47;13.70;99.90
16243;DHT22;11719;51.052;6.982;2023-03-14T01:21:26;13.80;99.90
16243;DHT22;11719;51.052;6.982;2023-03-14T01:23:54;13.80;99.90
16243;DHT22;11719;51.052;6.982;2023-03-14T01:26:24;13.80;99.90
16243;DHT22;11719;51.052;6.982;2023-03-14T01:28:52;13.70;99.90
16243;DHT22;11719;51.052;6.982;2023-03-14T01:31:19;13.50;99.90
16243;DHT22;11719;51.052;6.982;2023-03-14T01:33:45;13.40;99.90
16243;DHT22;11719;51.052;6.982;2023-03-14T01:36:12;13.30;99.90
16243;DHT22;11719;51.052;6.982;2023-03-14T01:38:39;13.30;99.90
16243;DHT22;11719;51.052;6.982;2023-03-14T01:41:07;13.20;99.90
16243;DHT22;11719;51.052;6.982;2023-03-14T01:43:33;13.20;99.90
16243;DHT22;11719;51.052;6.982;2023-03-14T01:49:04;13.20;99.90
16243;DHT22;11719;51.052;6.982;2023-03-14T01:51:43;13.20;99.90
16243;DHT22;11719;51.052;6.982;2023-03-14T01:54:42;13.30;99.90
16243;DHT22;11719;51.052;6.982;2023-03-14T01:59:52;13.20;99.90
16243;DHT22;11719;51.052;6.982;2023-03-14T02:02:26;13.20;99.90
16243;DHT22;11719;51.052;6.982;2023-03-14T02:04:54;13.30;99.90
16243;DHT22;11719;51.052;6.982;2023-03-14T02:07:40;13.30;99.90
16243;DHT22;11719;51.052;6.982;2023-03-14T02:10:14;13.30;99.90
16243;DHT22;11719;51.052;6.982;2023-03-14T02:12:45;13.30;99.90
16243;DHT22;11719;51.052;6.982;2023-03-14T02:15:12;13.30;99.90
16243;DHT22;11719;51.052;6.982;2023-03-14T02:17:40;13.30;99.90
16243;DHT22;11719;51.052;6.982;2023-03-14T02:20:14;13.30;99.90
16243;DHT22;11719;51.052;6.982;2023-03-14T02:23:02;13.30;99.90
16243;DHT22;11719;51.052;6.982;2023-03-14T02:25:39;13.30;99.90
16243;DHT22;11719;51.052;6.982;2023-03-14T02:28:06;13.30;99.90
16243;DHT22;11719;51.052;6.982;2023-03-14T02:30:33;13.20;99.90
16243;DHT22;11719;51.052;6.982;2023-03-14T02:33:07;13.20;99.90
16243;DHT22;11719;51.052;6.982;2023-03-14T02:35:59;13.30;99.90
16243;DHT22;11719;51.052;6.982;2023-03-14T02:38:53;13.20;99.90
16243;DHT22;11719;51.052;6.982;2023-03-14T02:41:24;13.30;99.90
16243;DHT22;11719;51.052;6.982;2023-03-14T02:43:49;13.20;99.90
16243;DHT22;11719;51.052;6.982;2023-03-14T02:46:20;13.20;99.90
16243;DHT22;11719;51.052;6.982;2023-03-14T02:48:48;13.20;99.90
16243;DHT22;11719;51.052;6.982;2023-03-14T02:51:18;13.30;99.90
16243;DHT22;11719;51.052;6.982;2023-03-14T02:53:44;13.20;99.90
16243;DHT22;11719;51.052;6.982;2023-03-14T02:56:10;13.20;99.90
16243;DHT22;11719;51.052;6.982;2023-03-14T02:58:36;13.30;99.90
16243;DHT22;11719;51.052;6.982;2023-03-14T03:01:03;13.20;99.90
16243;DHT22;11719;51.052;6.982;2023-03-14T03:03:29;13.20;99.90
16243;DHT22;11719;51.052;6.982;2023-03-14T03:05:56;13.20;99.90
16243;DHT22;11719;51.052;6.982;2023-03-14T03:08:24;13.20;99.90
16243;DHT22;11719;51.052;6.982;2023-03-14T03:10:51;13.20;99.90
16243;DHT22;11719;51.052;6.982;2023-03-14T03:13:18;13.30;99.90
16243;DHT22;11719;51.052;6.982;2023-03-14T03:15:44;13.40;99.90
16243;DHT22;11719;51.052;6.982;2023-03-14T03:18:10;13.40;99.90
16243;DHT22;11719;51.052;6.982;2023-03-14T03:20:36;13.40;99.90
16243;DHT22;11719;51.052;6.982;2023-03-14T03:23:02;13.60;99.90
16243;DHT22;11719;51.052;6.982;2023-03-14T03:25:29;13.80;99.90
16243;DHT22;11719;51.052;6.982;2023-03-14T03:27:55;13.90;99.90
16243;DHT22;11719;51.052;6.982;2023-03-14T03:30:21;13.90;99.90
16243;DHT22;11719;51.052;6.982;2023-03-14T03:32:47;14.00;99.90
16243;DHT22;11719;51.052;6.982;2023-03-14T03:35:13;14.00;99.90
16243;DHT22;11719;51.052;6.982;2023-03-14T03:37:39;14.00;99.90
16243;DHT22;11719;51.052;6.982;2023-03-14T03:40:06;13.90;99.90
16243;DHT22;11719;51.052;6.982;2023-03-14T03:42:33;13.90;99.90
16243;DHT22;11719;51.052;6.982;2023-03-14T03:45:00;13.90;99.90
16243;DHT22;11719;51.052;6.982;2023-03-14T03:47:30;13.80;99.90
16243;DHT22;11719;51.052;6.982;2023-03-14T03:49:56;13.80;99.90
16243;DHT22;11719;51.052;6.982;2023-03-14T03:52:22;13.80;99.90
16243;DHT22;11719;51.052;6.982;2023-03-14T03:54:48;13.80;99.90
16243;DHT22;11719;51.052;6.982;2023-03-14T03:57:14;13.80;99.90
16243;DHT22;11719;51.052;6.982;2023-03-14T03:59:40;13.70;99.90
16243;DHT22;11719;51.052;6.982;2023-03-14T04:02:06;13.70;99.90
16243;DHT22;11719;51.052;6.982;2023-03-14T04:04:33;13.70;99.90
16243;DHT22;11719;51.052;6.982;2023-03-14T04:06:59;13.60;99.90
16243;DHT22;11719;51.052;6.982;2023-03-14T04:09:24;13.60;99.90
16243;DHT22;11719;51.052;6.982;2023-03-14T04:11:50;13.50;99.90
16243;DHT22;11719;51.052;6.982;2023-03-14T04:14:16;13.60;99.90
16243;DHT22;11719;51.052;6.982;2023-03-14T04:16:42;13.70;99.90
16243;DHT22;11719;51.052;6.982;2023-03-14T04:19:08;13.60;99.90
16243;DHT22;11719;51.052;6.982;2023-03-14T04:21:33;13.60;99.90
16243;DHT22;11719;51.052;6.982;2023-03-14T04:23:59;13.60;99.90
16243;DHT22;11719;51.052;6.982;2023-03-14T04:26:25;13.60;99.90
16243;DHT22;11719;51.052;6.982;2023-03-14T04:28:51;13.50;99.90
16243;DHT22;11719;51.052;6.982;2023-03-14T04:31:20;13.50;99.90
16243;DHT22;11719;51.052;6.982;2023-03-14T04:33:47;13.50;99.90
16243;DHT22;11719;51.052;6.982;2023-03-14T04:36:13;13.50;99.90
16243;DHT22;11719;51.052;6.982;2023-03-14T04:38:40;13.40;99.90
16243;DHT22;11719;51.052;6.982;2023-03-14T04:41:06;13.40;99.90
16243;DHT22;11719;51.052;6.982;2023-03-14T04:43:32;13.30;99.90
16243;DHT22;11719;51.052;6.982;2023-03-14T04:45:58;13.40;99.90
16243;DHT22;11719;51.052;6.982;2023-03-14T04:48:26;13.30;99.90
16243;DHT22;11719;51.052;6.982;2023-03-14T04:50:52;13.30;99.90
16243;DHT22;11719;51.052;6.982;2023-03-14T04:53:18;13.30;99.90
16243;DHT22;11719;51.052;6.982;2023-03-14T04:55:52;13.30;99.90
16243;DHT22;11719;51.052;6.982;2023-03-14T04:58:20;13.30;99.90
16243;DHT22;11719;51.052;6.982;2023-03-14T05:00:47;13.30;99.90
16243;DHT22;11719;51.052;6.982;2023-03-14T05:03:15;13.30;99.90
16243;DHT22;11719;51.052;6.982;2023-03-14T05:05:41;13.30;99.90
16243;DHT22;11719;51.052;6.982;2023-03-14T05:08:07;13.20;99.90
16243;DHT22;11719;51.052;6.982;2023-03-14T05:10:33;13.20;99.90
16243;DHT22;11719;51.052;6.982;2023-03-14T05:12:59;13.20;99.90
16243;DHT22;11719;51.052;6.982;2023-03-14T05:15:25;13.20;99.90
16243;DHT22;11719;51.052;6.982;2023-03-14T05:17:50;13.20;99.90
16243;DHT22;11719;51.052;6.982;2023-03-14T05:20:17;13.20;99.90
16243;DHT22;11719;51.052;6.982;2023-03-14T05:22:43;13.10;99.90
16243;DHT22;11719;51.052;6.982;2023-03-14T05:25:09;13.20;99.90
16243;DHT22;11719;51.052;6.982;2023-03-14T05:27:35;13.20;99.90
16243;DHT22;11719;51.052;6.982;2023-03-14T05:30:03;13.20;99.90
16243;DHT22;11719;51.052;6.982;2023-03-14T05:32:29;13.20;99.90
16243;DHT22;11719;51.052;6.982;2023-03-14T05:34:55;13.10;99.90
16243;DHT22;11719;51.052;6.982;2023-03-14T05:37:25;13.20;99.90
16243;DHT22;11719;51.052;6.982;2023-03-14T05:39:51;13.20;99.90
16243;DHT22;11719;51.052;6.982;2023-03-14T05:42:17;13.20;99.90
16243;DHT22;11719;51.052;6.982;2023-03-14T05:44:43;13.20;99.90
16243;DHT22;11719;51.052;6.982;2023-03-14T05:47:09;13.20;99.90
16243;DHT22;11719;51.052;6.982;2023-03-14T05:49:35;13.20;99.90
16243;DHT22;11719;51.052;6.982;2023-03-14T05:52:00;13.30;99.90
16243;DHT22;11719;51.052;6.982;2023-03-14T05:54:26;13.30;99.90
16243;DHT22;11719;51.052;6.982;2023-03-14T05:56:52;13.20;99.90
16243;DHT22;11719;51.052;6.982;2023-03-14T05:59:18;13.30;99.90
16243;DHT22;11719;51.052;6.982;2023-03-14T06:01:44;13.30;99.90
16243;DHT22;11719;51.052;6.982;2023-03-14T06:04:10;13.40;99.90
16243;DHT22;11719;51.052;6.982;2023-03-14T06:06:36;13.40;99.90
16243;DHT22;11719;51.052;6.982;2023-03-14T06:09:02;13.50;99.90
16243;DHT22;11719;51.052;6.982;2023-03-14T06:11:28;13.50;99.90
16243;DHT22;11719;51.052;6.982;2023-03-14T06:13:53;13.60;99.90
16243;DHT22;11719;51.052;6.982;2023-03-14T06:16:19;13.60;99.90
16243;DHT22;11719;51.052;6.982;2023-03-14T06:18:45;13.60;99.90
16243;DHT22;11719;51.052;6.982;2023-03-14T06:21:14;13.50;99.90
16243;DHT22;11719;51.052;6.982;2023-03-14T06:23:40;13.40;99.90
16243;DHT22;11719;51.052;6.982;2023-03-14T06:26:06;13.40;99.90
16243;DHT22;11719;51.052;6.982;2023-03-14T06:28:32;13.40;99.90
16243;DHT22;11719;51.052;6.982;2023-03-14T06:30:59;13.40;99.90
16243;DHT22;11719;51.052;6.982;2023-03-14T06:33:25;13.40;99.90
16243;DHT22;11719;51.052;6.982;2023-03-14T06:35:51;13.40;99.90
16243;DHT22;11719;51.052;6.982;2023-03-14T06:38:17;13.30;99.90
16243;DHT22;11719;51.052;6.982;2023-03-14T06:40:43;13.40;99.90
16243;DHT22;11719;51.052;6.982;2023-03-14T06:43:08;13.30;99.90
16243;DHT22;11719;51.052;6.982;2023-03-14T06:45:34;13.30;99.90
16243;DHT22;11719;51.052;6.982;2023-03-14T06:48:00;13.30;99.90
16243;DHT22;11719;51.052;6.982;2023-03-14T06:50:26;13.30;99.90
16243;DHT22;11719;51.052;6.982;2023-03-14T06:52:51;13.30;99.90
16243;DHT22;11719;51.052;6.982;2023-03-14T06:55:17;13.40;99.90
16243;DHT22;11719;51.052;6.982;2023-03-14T06:57:43;13.40;99.90
16243;DHT22;11719;51.052;6.982;2023-03-14T07:00:10;13.40;99.90
16243;DHT22;11719;51.052;6.982;2023-03-14T07:02:37;13.40;99.90
16243;DHT22;11719;51.052;6.982;2023-03-14T07:05:03;13.40;99.90
16243;DHT22;11719;51.052;6.982;2023-03-14T07:07:29;13.60;99.90
16243;DHT22;11719;51.052;6.982;2023-03-14T07:09:55;13.60;99.90
16243;DHT22;11719;51.052;6.982;2023-03-14T07:12:21;13.60;99.90
16243;DHT22;11719;51.052;6.982;2023-03-14T07:14:47;13.60;99.90
16243;DHT22;11719;51.052;6.982;2023-03-14T07:17:13;13.60;99.90
16243;DHT22;11719;51.052;6.982;2023-03-14T07:19:38;13.60;99.90
16243;DHT22;11719;51.052;6.982;2023-03-14T07:22:05;13.70;99.90
16243;DHT22;11719;51.052;6.982;2023-03-14T07:24:31;13.60;99.90
16243;DHT22;11719;51.052;6.982;2023-03-14T07:26:56;13.60;99.90
16243;DHT22;11719;51.052;6.982;2023-03-14T07:29:22;13.60;99.90
16243;DHT22;11719;51.052;6.982;2023-03-14T07:31:48;13.60;99.90
16243;DHT22;11719;51.052;6.982;2023-03-14T07:34:14;13.70;99.90
16243;DHT22;11719;51.052;6.982;2023-03-14T07:36:40;13.70;99.90
16243;DHT22;11719;51.052;6.982;2023-03-14T07:39:06;13.80;99.90
16243;DHT22;11719;51.052;6.982;2023-03-14T07:41:32;13.80;99.90
16243;DHT22;11719;51.052;6.982;2023-03-14T07:43:58;13.80;99.90
16243;DHT22;11719;51.052;6.982;2023-03-14T07:46:24;13.90;99.90
16243;DHT22;11719;51.052;6.982;2023-03-14T07:48:50;14.00;99.90
16243;DHT22;11719;51.052;6.982;2023-03-14T07:51:16;13.90;99.90
16243;DHT22;11719;51.052;6.982;2023-03-14T07:53:42;13.80;99.90
16243;DHT22;11719;51.052;6.982;2023-03-14T07:56:08;13.80;99.90
16243;DHT22;11719;51.052;6.982;2023-03-14T07:58:34;13.80;99.90
16243;DHT22;11719;51.052;6.982;2023-03-14T08:01:00;13.70;99.90
16243;DHT22;11719;51.052;6.982;2023-03-14T08:03:26;13.70;99.90
16243;DHT22;11719;51.052;6.982;2023-03-14T08:05:51;13.80;99.90
16243;DHT22;11719;51.052;6.982;2023-03-14T08:08:18;13.80;99.90
16243;DHT22;11719;51.052;6.982;2023-03-14T08:10:45;13.80;99.90
16243;DHT22;11719;51.052;6.982;2023-03-14T08:13:11;13.80;99.90
16243;DHT22;11719;51.052;6.982;2023-03-14T08:15:38;13.80;99.90
16243;DHT22;11719;51.052;6.982;2023-03-14T08:18:05;13.80;99.90
16243;DHT22;11719;51.052;6.982;2023-03-14T08:20:31;13.80;99.90
16243;DHT22;11719;51.052;6.982;2023-03-14T08:22:58;13.90;99.90
16243;DHT22;11719;51.052;6.982;2023-03-14T08:25:25;13.90;99.90
16243;DHT22;11719;51.052;6.982;2023-03-14T08:27:51;13.80;99.90
16243;DHT22;11719;51.052;6.982;2023-03-14T08:30:18;13.90;99.90
16243;DHT22;11719;51.052;6.982;2023-03-14T08:32:45;14.00;99.90
16243;DHT22;11719;51.052;6.982;2023-03-14T08:35:12;14.00;99.90
16243;DHT22;11719;51.052;6.982;2023-03-14T08:37:38;13.90;99.90
16243;DHT22;11719;51.052;6.982;2023-03-14T08:40:06;13.90;99.90
16243;DHT22;11719;51.052;6.982;2023-03-14T08:42:34;14.00;99.90
16243;DHT22;11719;51.052;6.982;2023-03-14T08:44:59;14.00;99.90
16243;DHT22;11719;51.052;6.982;2023-03-14T08:47:25;13.90;99.90
16243;DHT22;11719;51.052;6.982;2023-03-14T08:49:51;13.90;99.90
16243;DHT22;11719;51.052;6.982;2023-03-14T08:52:17;13.90;99.90
16243;DHT22;11719;51.052;6.982;2023-03-14T08:54:43;14.10;99.90
16243;DHT22;11719;51.052;6.982;2023-03-14T08:57:09;14.10;99.90
16243;DHT22;11719;51.052;6.982;2023-03-14T08:59:35;14.10;99.90
16243;DHT22;11719;51.052;6.982;2023-03-14T09:02:02;13.90;99.90
16243;DHT22;11719;51.052;6.982;2023-03-14T09:04:32;13.90;99.90
16243;DHT22;11719;51.052;6.982;2023-03-14T09:06:59;13.80;99.90
16243;DHT22;11719;51.052;6.982;2023-03-14T09:09:25;13.90;99.90
16243;DHT22;11719;51.052;6.982;2023-03-14T09:11:57;13.90;99.90
16243;DHT22;11719;51.052;6.982;2023-03-14T09:14:23;13.90;99.90
16243;DHT22;11719;51.052;6.982;2023-03-14T09:16:49;14.00;99.90
16243;DHT22;11719;51.052;6.982;2023-03-14T09:19:16;13.90;99.90
16243;DHT22;11719;51.052;6.982;2023-03-14T09:21:42;13.90;99.90
16243;DHT22;11719;51.052;6.982;2023-03-14T09:24:08;13.80;99.90
16243;DHT22;11719;51.052;6.982;2023-03-14T09:26:34;13.80;99.90
16243;DHT22;11719;51.052;6.982;2023-03-14T09:28:59;14.10;99.90
16243;DHT22;11719;51.052;6.982;2023-03-14T09:31:25;14.00;99.90
16243;DHT22;11719;51.052;6.982;2023-03-14T09:33:52;14.10;99.90
16243;DHT22;11719;51.052;6.982;2023-03-14T09:36:18;14.00;99.90
16243;DHT22;11719;51.052;6.982;2023-03-14T09:38:44;14.10;99.90
16243;DHT22;11719;51.052;6.982;2023-03-14T09:41:16;14.00;99.90
16243;DHT22;11719;51.052;6.982;2023-03-14T09:43:47;13.90;99.90
16243;DHT22;11719;51.052;6.982;2023-03-14T09:46:16;13.10;99.90
16243;DHT22;11719;51.052;6.982;2023-03-14T09:48:43;12.60;99.90
16243;DHT22;11719;51.052;6.982;2023-03-14T09:51:17;12.40;99.90
16243;DHT22;11719;51.052;6.982;2023-03-14T09:53:47;12.10;99.90
16243;DHT22;11719;51.052;6.982;2023-03-14T09:56:20;11.80;99.90
16243;DHT22;11719;51.052;6.982;2023-03-14T09:59:00;11.50;99.90
16243;DHT22;11719;51.052;6.982;2023-03-14T10:01:30;11.30;99.90
16243;DHT22;11719;51.052;6.982;2023-03-14T10:04:04;11.20;99.90
16243;DHT22;11719;51.052;6.982;2023-03-14T10:06:32;11.10;99.90
16243;DHT22;11719;51.052;6.982;2023-03-14T10:09:01;11.10;99.90
16243;DHT22;11719;51.052;6.982;2023-03-14T10:11:28;11.00;99.90
16243;DHT22;11719;51.052;6.982;2023-03-14T10:14:09;10.90;99.90
16243;DHT22;11719;51.052;6.982;2023-03-14T10:16:43;10.80;99.90
16243;DHT22;11719;51.052;6.982;2023-03-14T10:19:14;10.90;99.90
16243;DHT22;11719;51.052;6.982;2023-03-14T10:21:51;10.80;99.90
16243;DHT22;11719;51.052;6.982;2023-03-14T10:24:26;10.80;99.90
16243;DHT22;11719;51.052;6.982;2023-03-14T10:27:04;10.80;99.90
16243;DHT22;11719;51.052;6.982;2023-03-14T10:29:33;10.70;99.90
16243;DHT22;11719;51.052;6.982;2023-03-14T10:32:02;10.90;99.90
16243;DHT22;11719;51.052;6.982;2023-03-14T10:34:37;10.80;99.90
16243;DHT22;11719;51.052;6.982;2023-03-14T10:39:47;10.80;99.90
16243;DHT22;11719;51.052;6.982;2023-03-14T10:45:04;10.40;99.90
16243;DHT22;11719;51.052;6.982;2023-03-14T10:47:52;10.40;99.90
16243;DHT22;11719;51.052;6.982;2023-03-14T10:50:27;10.50;99.90
16243;DHT22;11719;51.052;6.982;2023-03-14T10:52:56;10.50;99.90
16243;DHT22;11719;51.052;6.982;2023-03-14T10:55:24;10.90;99.90
16243;DHT22;11719;51.052;6.982;2023-03-14T10:57:51;10.90;99.90
16243;DHT22;11719;51.052;6.982;2023-03-14T11:00:19;10.90;99.90
16243;DHT22;11719;51.052;6.982;2023-03-14T11:03:08;10.80;99.90
16243;DHT22;11719;51.052;6.982;2023-03-14T11:05:45;10.80;99.90
16243;DHT22;11719;51.052;6.982;2023-03-14T11:08:30;10.70;99.90
16243;DHT22;11719;51.052;6.982;2023-03-14T11:11:27;10.70;99.90
16243;DHT22;11719;51.052;6.982;2023-03-14T11:17:02;11.20;99.90
16243;DHT22;11719;51.052;6.982;2023-03-14T11:22:50;11.40;99.90
16243;DHT22;11719;51.052;6.982;2023-03-14T11:28:40;11.30;99.90
16243;DHT22;11719;51.052;6.982;2023-03-14T11:31:27;11.00;99.90
16243;DHT22;11719;51.052;6.982;2023-03-14T11:34:01;11.00;99.90
16243;DHT22;11719;51.052;6.982;2023-03-14T11:37:00;10.90;99.90
16243;DHT22;11719;51.052;6.982;2023-03-14T11:39:43;10.90;99.90
16243;DHT22;11719;51.052;6.982;2023-03-14T11:42:16;10.70;99.90
16243;DHT22;11719;51.052;6.982;2023-03-14T11:44:48;10.60;99.90
16243;DHT22;11719;51.052;6.982;2023-03-14T11:47:44;10.50;99.90
16243;DHT22;11719;51.052;6.982;2023-03-14T11:52:55;10.30;99.90
16243;DHT22;11719;51.052;6.982;2023-03-14T11:55:30;10.30;99.90
16243;DHT22;11719;51.052;6.982;2023-03-14T11:58:09;10.10;99.90
16243;DHT22;11719;51.052;6.982;2023-03-14T12:00:38;10.20;99.90
16243;DHT22;11719;51.052;6.982;2023-03-14T12:08:44;10.40;99.90
16243;DHT22;11719;51.052;6.982;2023-03-14T12:11:58;10.40;99.90
16243;DHT22;11719;51.052;6.982;2023-03-14T12:14:29;10.50;99.90
16243;DHT22;11719;51.052;6.982;2023-03-14T12:17:26;10.50;99.90
16243;DHT22;11719;51.052;6.982;2023-03-14T12:22:46;10.70;99.90
16243;DHT22;11719;51.052;6.982;2023-03-14T12:25:25;10.90;99.90
16243;DHT22;11719;51.052;6.982;2023-03-14T12:41:06;11.00;99.90
16243;DHT22;11719;51.052;6.982;2023-03-14T12:43:43;11.00;99.90
16243;DHT22;11719;51.052;6.982;2023-03-14T12:48:45;10.90;99.90
16243;DHT22;11719;51.052;6.982;2023-03-14T12:51:17;10.90;99.90
16243;DHT22;11719;51.052;6.982;2023-03-14T12:57:09;10.60;99.90
16243;DHT22;11719;51.052;6.982;2023-03-14T12:59:52;10.60;99.90
16243;DHT22;11719;51.052;6.982;2023-03-14T13:02:37;10.70;99.90
16243;DHT22;11719;51.052;6.982;2023-03-14T13:05:15;10.70;99.90
16243;DHT22;11719;51.052;6.982;2023-03-14T13:15:48;11.60;99.90
16243;DHT22;11719;51.052;6.982;2023-03-14T13:18:30;11.90;99.90
16243;DHT22;11719;51.052;6.982;2023-03-14T13:21:21;12.40;99.90
16243;DHT22;11719;51.052;6.982;2023-03-14T13:24:00;12.70;99.90
16243;DHT22;11719;51.052;6.982;2023-03-14T13:26:36;12.70;99.90
16243;DHT22;11719;51.052;6.982;2023-03-14T13:29:27;12.60;99.90
16243;DHT22;11719;51.052;6.982;2023-03-14T13:31:56;12.50;99.90
16243;DHT22;11719;51.052;6.982;2023-03-14T13:34:29;12.40;99.90
16243;DHT22;11719;51.052;6.982;2023-03-14T13:36:56;12.10;99.90
16243;DHT22;11719;51.052;6.982;2023-03-14T13:39:24;12.00;99.90
16243;DHT22;11719;51.052;6.982;2023-03-14T13:41:52;12.00;99.90
16243;DHT22;11719;51.052;6.982;2023-03-14T13:44:31;11.80;99.90
16243;DHT22;11719;51.052;6.982;2023-03-14T13:47:01;11.80;99.90
16243;DHT22;11719;51.052;6.982;2023-03-14T13:49:29;11.50;99.90
16243;DHT22;11719;51.052;6.982;2023-03-14T13:51:58;11.30;99.90
16243;DHT22;11719;51.052;6.982;2023-03-14T13:54:26;11.20;99.90
16243;DHT22;11719;51.052;6.982;2023-03-14T13:57:06;11.30;99.90
16243;DHT22;11719;51.052;6.982;2023-03-14T13:59:33;11.30;99.90
16243;DHT22;11719;51.052;6.982;2023-03-14T14:02:18;11.20;99.90
16243;DHT22;11719;51.052;6.982;2023-03-14T14:04:46;11.30;99.90
16243;DHT22;11719;51.052;6.982;2023-03-14T14:07:16;11.70;99.90
16243;DHT22;11719;51.052;6.982;2023-03-14T14:09:51;11.50;99.90
16243;DHT22;11719;51.052;6.982;2023-03-14T14:12:19;11.60;99.90
16243;DHT22;11719;51.052;6.982;2023-03-14T14:15:13;11.80;99.90
16243;DHT22;11719;51.052;6.982;2023-03-14T14:17:44;12.20;99.90
16243;DHT22;11719;51.052;6.982;2023-03-14T14:23:05;12.30;99.90
16243;DHT22;11719;51.052;6.982;2023-03-14T14:25:36;12.30;99.90
16243;DHT22;11719;51.052;6.982;2023-03-14T14:28:35;12.40;99.90
16243;DHT22;11719;51.052;6.982;2023-03-14T14:33:29;12.00;99.90
16243;DHT22;11719;51.052;6.982;2023-03-14T14:36:03;12.10;99.90
16243;DHT22;11719;51.052;6.982;2023-03-14T14:38:29;12.10;99.90
16243;DHT22;11719;51.052;6.982;2023-03-14T14:41:00;12.00;99.90
16243;DHT22;11719;51.052;6.982;2023-03-14T14:43:28;11.90;99.90
16243;DHT22;11719;51.052;6.982;2023-03-14T14:45:56;11.70;99.90
16243;DHT22;11719;51.052;6.982;2023-03-14T14:48:25;11.70;99.90
16243;DHT22;11719;51.052;6.982;2023-03-14T14:51:02;11.60;99.90
16243;DHT22;11719;51.052;6.982;2023-03-14T14:53:34;11.60;99.90
16243;DHT22;11719;51.052;6.982;2023-03-14T14:56:13;11.60;99.90
16243;DHT22;11719;51.052;6.982;2023-03-14T14:58:44;11.60;99.90
16243;DHT22;11719;51.052;6.982;2023-03-14T15:01:13;11.50;99.90
16243;DHT22;11719;51.052;6.982;2023-03-14T15:03:42;11.50;99.90
16243;DHT22;11719;51.052;6.982;2023-03-14T15:06:12;11.60;99.90
16243;DHT22;11719;51.052;6.982;2023-03-14T15:08:39;11.60;99.90
16243;DHT22;11719;51.052;6.982;2023-03-14T15:11:05;11.60;99.90
16243;DHT22;11719;51.052;6.982;2023-03-14T15:13:31;11.70;99.90
16243;DHT22;11719;51.052;6.982;2023-03-14T15:15:57;11.60;99.90
16243;DHT22;11719;51.052;6.982;2023-03-14T15:18:24;11.40;99.90
16243;DHT22;11719;51.052;6.982;2023-03-14T15:20:51;11.50;99.90
16243;DHT22;11719;51.052;6.982;2023-03-14T15:23:19;11.60;99.90
16243;DHT22;11719;51.052;6.982;2023-03-14T15:25:46;11.70;99.90
16243;DHT22;11719;51.052;6.982;2023-03-14T15:28:19;11.70;99.90
16243;DHT22;11719;51.052;6.982;2023-03-14T15:30:48;11.70;99.90
16243;DHT22;11719;51.052;6.982;2023-03-14T15:33:15;11.80;99.90
16243;DHT22;11719;51.052;6.982;2023-03-14T15:35:42;11.80;99.90
16243;DHT22;11719;51.052;6.982;2023-03-14T15:38:13;11.90;99.90
16243;DHT22;11719;51.052;6.982;2023-03-14T15:40:41;12.00;99.90
16243;DHT22;11719;51.052;6.982;2023-03-14T15:43:07;12.10;99.90
16243;DHT22;11719;51.052;6.982;2023-03-14T15:45:34;12.30;99.90
16243;DHT22;11719;51.052;6.982;2023-03-14T15:48:00;12.30;99.90
16243;DHT22;11719;51.052;6.982;2023-03-14T15:50:26;12.10;99.90
16243;DHT22;11719;51.052;6.982;2023-03-14T15:52:52;11.90;99.90
16243;DHT22;11719;51.052;6.982;2023-03-14T15:55:18;11.70;99.90
16243;DHT22;11719;51.052;6.982;2023-03-14T15:57:44;11.70;99.90
16243;DHT22;11719;51.052;6.982;2023-03-14T16:00:16;11.60;99.90
16243;DHT22;11719;51.052;6.982;2023-03-14T16:02:44;11.60;99.90
16243;DHT22;11719;51.052;6.982;2023-03-14T16:05:11;11.50;98.70
16243;DHT22;11719;51.052;6.982;2023-03-14T16:07:38;11.30;97.70
16243;DHT22;11719;51.052;6.982;2023-03-14T16:10:06;11.10;96.90
16243;DHT22;11719;51.052;6.982;2023-03-14T16:12:33;11.00;98.40
16243;DHT22;11719;51.052;6.982;2023-03-14T16:14:59;11.00;98.50
16243;DHT22;11719;51.052;6.982;2023-03-14T16:17:25;11.00;97.70
16243;DHT22;11719;51.052;6.982;2023-03-14T16:19:52;11.00;99.90
16243;DHT22;11719;51.052;6.982;2023-03-14T16:22:18;11.10;99.90
16243;DHT22;11719;51.052;6.982;2023-03-14T16:24:44;11.20;99.90
16243;DHT22;11719;51.052;6.982;2023-03-14T16:27:10;11.30;99.90
16243;DHT22;11719;51.052;6.982;2023-03-14T16:29:36;11.40;99.90
16243;DHT22;11719;51.052;6.982;2023-03-14T16:32:02;11.40;99.50
16243;DHT22;11719;51.052;6.982;2023-03-14T16:34:28;11.40;97.70
16243;DHT22;11719;51.052;6.982;2023-03-14T16:36:54;11.30;98.50
16243;DHT22;11719;51.052;6.982;2023-03-14T16:39:20;11.40;99.90
16243;DHT22;11719;51.052;6.982;2023-03-14T16:41:46;11.40;99.90
16243;DHT22;11719;51.052;6.982;2023-03-14T16:44:12;11.60;99.50
16243;DHT22;11719;51.052;6.982;2023-03-14T16:46:38;11.40;97.60